Time;durP1;ratioP1;P1;durP2;ratioP2;P2;SDS_P1;SDS_P2;PMS_P1;PMS_P2;Temp;Humidity;BMP_temperature;BMP_pressure;BME280_temperature;BME280_humidity;BME280_pressure;Samples;Min_cycle;Max_cycle;Signal;HPM_P1;HPM_P2
2022/07/20 00:00:08;;;;;;;3.65;3.00;;;21.70;91.40;;;;;;4975457;28;20227;-77
2022/07/20 00:02:34;;;;;;;3.58;2.97;;;21.70;92.20;;;;;;4975381;28;20218;-77
2022/07/20 00:05:00;;;;;;;3.50;2.92;;;21.70;92.30;;;;;;4979827;28;20177;-77
2022/07/20 00:07:25;;;;;;;4.50;2.97;;;21.60;92.40;;;;;;4974199;28;20651;-77
2022/07/20 00:12:35;;;;;;;3.60;2.80;;;21.50;94.60;;;;;;4958885;28;20164;-77
2022/07/20 00:15:01;;;;;;;3.88;2.92;;;21.50;95.00;;;;;;4975050;28;20179;-77
2022/07/20 00:17:26;;;;;;;5.60;3.03;;;21.40;94.90;;;;;;4972014;28;20254;-77
2022/07/20 00:19:52;;;;;;;3.80;3.20;;;21.30;95.50;;;;;;4977746;28;20180;-77
2022/07/20 00:22:17;;;;;;;3.15;2.85;;;21.20;96.50;;;;;;4975965;28;20203;-77
2022/07/20 00:24:43;;;;;;;3.47;2.92;;;21.20;96.50;;;;;;4972370;28;20181;-77
2022/07/20 00:27:09;;;;;;;3.83;3.13;;;21.10;97.30;;;;;;4956364;28;20196;-77
2022/07/20 00:29:34;;;;;;;3.17;2.88;;;21.20;97.50;;;;;;4980122;28;20246;-77
2022/07/20 00:32:00;;;;;;;4.13;3.17;;;21.10;98.10;;;;;;4994629;28;20215;-77
2022/07/20 00:34:26;;;;;;;3.72;3.10;;;20.90;98.50;;;;;;4978574;28;20187;-77
2022/07/20 00:36:51;;;;;;;3.22;2.92;;;21.00;98.80;;;;;;4994570;28;20203;-77
2022/07/20 00:39:17;;;;;;;4.13;3.20;;;20.90;99.10;;;;;;4978503;28;20186;-77
2022/07/20 00:41:42;;;;;;;3.30;2.95;;;20.90;99.40;;;;;;4994377;28;20551;-77
2022/07/20 00:44:10;;;;;;;4.05;3.00;;;20.80;99.40;;;;;;4962521;28;20630;-77
2022/07/20 00:46:41;;;;;;;5.13;3.35;;;21.10;99.30;;;;;;4986367;28;20176;-77
2022/07/20 00:49:09;;;;;;;5.47;3.38;;;21.20;99.10;;;;;;4994539;28;20183;-77
2022/07/20 00:51:35;;;;;;;3.90;3.17;;;21.20;99.10;;;;;;4978308;28;20242;-77
2022/07/20 00:54:03;;;;;;;3.40;3.10;;;21.10;98.60;;;;;;4978038;28;20176;-77
2022/07/20 00:56:29;;;;;;;3.30;3.00;;;21.00;98.60;;;;;;4977835;28;20183;-77
2022/07/20 00:58:54;;;;;;;4.68;3.10;;;21.00;98.30;;;;;;4978180;28;20258;-77
2022/07/20 01:01:20;;;;;;;4.03;3.17;;;21.10;98.30;;;;;;4978147;28;20204;-77
2022/07/20 01:03:46;;;;;;;4.30;3.38;;;21.20;97.90;;;;;;4978236;28;20273;-77
2022/07/20 01:06:12;;;;;;;3.45;3.05;;;21.20;97.60;;;;;;4977284;28;20709;-77
2022/07/20 01:08:38;;;;;;;3.88;3.20;;;21.20;98.00;;;;;;4978508;28;20643;-77
2022/07/20 01:11:04;;;;;;;4.28;2.88;;;21.10;98.00;;;;;;4993953;28;20215;-77
2022/07/20 01:13:30;;;;;;;3.85;2.80;;;21.00;98.10;;;;;;4962067;28;20570;-77
2022/07/20 01:15:56;;;;;;;3.42;2.90;;;20.90;98.50;;;;;;4993561;28;20211;-77
2022/07/20 01:18:22;;;;;;;3.05;2.72;;;20.70;99.90;;;;;;4994053;28;20231;-77
2022/07/20 01:20:49;;;;;;;4.50;3.17;;;20.40;99.90;;;;;;4977898;28;20199;-77
2022/07/20 01:23:16;;;;;;;4.25;2.95;;;20.50;99.90;;;;;;4978029;28;20180;-77
2022/07/20 01:25:42;;;;;;;3.40;3.03;;;20.40;99.90;;;;;;4993634;28;20191;-77
2022/07/20 01:28:09;;;;;;;4.20;3.22;;;20.50;99.90;;;;;;4995106;28;20175;-77
2022/07/20 01:30:35;;;;;;;3.85;3.00;;;20.50;99.90;;;;;;4977520;28;20624;-77
2022/07/20 01:33:01;;;;;;;4.03;3.53;;;20.70;99.90;;;;;;4961501;28;20270;-77
2022/07/20 01:35:26;;;;;;;3.40;2.85;;;20.70;99.90;;;;;;4993490;28;20192;-77
2022/07/20 01:37:52;;;;;;;5.40;3.50;;;20.70;99.90;;;;;;4961521;28;20682;-77
2022/07/20 01:40:18;;;;;;;3.75;3.25;;;20.70;99.90;;;;;;4993293;28;20330;-77
2022/07/20 01:42:43;;;;;;;5.38;3.50;;;20.50;99.90;;;;;;4993320;28;20262;-77
2022/07/20 01:45:09;;;;;;;4.55;3.20;;;20.30;99.90;;;;;;4977205;28;20542;-77
2022/07/20 01:47:35;;;;;;;3.88;3.17;;;20.20;99.90;;;;;;4993525;28;20550;-77
2022/07/20 01:50:01;;;;;;;5.30;3.40;;;20.20;99.90;;;;;;4977272;28;20180;-77
2022/07/20 01:52:26;;;;;;;4.03;3.22;;;20.30;99.90;;;;;;4977288;28;20259;-77
2022/07/20 01:54:52;;;;;;;3.58;3.28;;;20.30;99.90;;;;;;4977005;28;20192;-77
2022/07/20 01:57:17;;;;;;;4.35;3.42;;;20.20;99.90;;;;;;4946126;28;20290;-77
2022/07/20 01:59:43;;;;;;;5.38;3.83;;;20.00;99.90;;;;;;4966592;28;20269;-77
2022/07/20 02:02:08;;;;;;;5.50;3.50;;;20.00;99.90;;;;;;4993013;28;20207;-77
2022/07/20 02:04:35;;;;;;;4.20;3.78;;;19.80;99.90;;;;;;4973144;28;20173;-77
2022/07/20 02:07:01;;;;;;;5.47;3.63;;;19.70;99.90;;;;;;4973598;28;20271;-77
2022/07/20 02:09:27;;;;;;;5.55;3.50;;;19.60;99.90;;;;;;4992555;28;20286;-77
2022/07/20 02:11:52;;;;;;;3.92;3.50;;;19.60;99.90;;;;;;4993971;28;20270;-77
2022/07/20 02:14:18;;;;;;;5.03;3.38;;;19.60;99.90;;;;;;4957196;28;20180;-77
2022/07/20 02:16:43;;;;;;;3.50;3.20;;;19.60;99.90;;;;;;4967322;28;20208;-77
2022/07/20 02:19:09;;;;;;;3.63;3.30;;;19.50;99.90;;;;;;4975911;28;20264;-77
2022/07/20 02:21:35;;;;;;;4.50;3.40;;;19.20;99.90;;;;;;4976698;28;20231;-77
2022/07/20 02:24:01;;;;;;;6.18;3.20;;;19.00;99.90;;;;;;4976005;28;20180;-77
2022/07/20 02:26:26;;;;;;;4.30;3.57;;;18.70;99.90;;;;;;4964622;28;20219;-77
2022/07/20 02:28:52;;;;;;;4.33;3.23;;;18.60;99.90;;;;;;4972588;28;20188;-77
2022/07/20 02:31:18;;;;;;;3.40;3.10;;;18.60;99.90;;;;;;4976767;28;20314;-77
2022/07/20 02:33:45;;;;;;;4.73;3.30;;;18.70;99.90;;;;;;4976363;28;20282;-77
2022/07/20 02:36:11;;;;;;;3.47;3.17;;;18.80;99.90;;;;;;4992611;28;20187;-77
2022/07/20 02:38:37;;;;;;;5.97;3.30;;;18.80;99.90;;;;;;4993942;28;20203;-78
2022/07/20 02:41:03;;;;;;;3.50;3.20;;;18.90;99.90;;;;;;4976312;28;20270;-77
2022/07/20 02:43:28;;;;;;;4.00;3.30;;;18.90;99.90;;;;;;4991988;28;20246;-77
2022/07/20 02:45:54;;;;;;;4.93;3.40;;;19.00;99.90;;;;;;4992520;28;20283;-77
2022/07/20 02:48:20;;;;;;;5.03;3.50;;;18.50;99.90;;;;;;4992319;28;20188;-77
2022/07/20 02:50:45;;;;;;;4.07;3.30;;;18.40;99.90;;;;;;4993374;28;20620;-77
2022/07/20 02:53:13;;;;;;;3.27;2.97;;;18.40;99.90;;;;;;4976230;28;20183;-77
2022/07/20 02:55:40;;;;;;;7.57;3.40;;;18.50;99.90;;;;;;4975884;28;20566;-77
2022/07/20 02:58:06;;;;;;;4.77;3.33;;;18.50;99.90;;;;;;4974238;28;20255;-79
2022/07/20 03:00:32;;;;;;;3.57;3.27;;;18.50;99.90;;;;;;4976463;28;20290;-77
2022/07/20 03:02:58;;;;;;;5.13;3.40;;;18.50;99.90;;;;;;4991997;28;20734;-77
2022/07/20 03:05:24;;;;;;;5.07;3.60;;;18.60;99.90;;;;;;4972985;28;20188;-77
2022/07/20 03:07:49;;;;;;;4.83;3.40;;;18.70;99.90;;;;;;4990130;28;20191;-77
2022/07/20 03:10:15;;;;;;;4.67;3.13;;;18.70;99.90;;;;;;4975920;28;20199;-77
2022/07/20 03:12:41;;;;;;;5.07;3.57;;;18.60;99.90;;;;;;4992149;28;20199;-77
2022/07/20 03:15:08;;;;;;;3.43;3.10;;;18.70;99.90;;;;;;4991526;28;20195;-77
2022/07/20 03:17:41;;;;;;;3.43;3.00;;;18.70;99.90;;;;;;4991596;28;20226;-77
2022/07/20 03:20:07;;;;;;;3.60;3.30;;;18.80;99.90;;;;;;4972450;28;20677;-77
2022/07/20 03:22:33;;;;;;;4.03;3.20;;;18.80;99.90;;;;;;4972510;28;20188;-77
2022/07/20 03:24:58;;;;;;;4.43;3.40;;;18.90;99.90;;;;;;4963675;28;20184;-77
2022/07/20 03:27:24;;;;;;;3.97;3.53;;;18.90;99.90;;;;;;4959794;28;20191;-77
2022/07/20 03:29:49;;;;;;;3.53;3.20;;;19.00;99.90;;;;;;4975734;28;20237;-77
2022/07/20 03:32:15;;;;;;;5.20;3.47;;;19.10;99.90;;;;;;5036677;23;20225;-78
2022/07/20 03:34:40;;;;;;;4.70;3.33;;;19.10;99.90;;;;;;4997089;28;20653;-78
2022/07/20 03:37:06;;;;;;;5.60;3.37;;;19.20;99.90;;;;;;5030199;28;20257;-78
2022/07/20 03:39:31;;;;;;;5.00;3.40;;;19.30;99.90;;;;;;5030717;28;20541;-79
2022/07/20 03:41:57;;;;;;;4.70;3.17;;;19.40;99.90;;;;;;5017612;28;20337;-78
2022/07/20 03:44:23;;;;;;;4.33;3.20;;;19.40;99.90;;;;;;5013185;28;20213;-78
2022/07/20 03:46:48;;;;;;;4.53;3.40;;;19.50;99.90;;;;;;4996660;28;20582;-78
2022/07/20 03:49:14;;;;;;;5.17;3.47;;;19.40;99.90;;;;;;4980748;28;20263;-78
2022/07/20 03:51:39;;;;;;;3.90;3.50;;;19.20;99.90;;;;;;4996927;28;20297;-78
2022/07/20 03:54:07;;;;;;;3.50;3.20;;;19.10;99.90;;;;;;4997029;28;20187;-78
2022/07/20 03:56:33;;;;;;;3.83;3.30;;;19.00;99.90;;;;;;5015821;28;20209;-78
2022/07/20 03:58:58;;;;;;;5.80;3.70;;;19.00;99.90;;;;;;5000913;28;20179;-78
2022/07/20 04:01:25;;;;;;;3.70;3.40;;;18.80;99.90;;;;;;4983872;28;20203;-76
2022/07/20 04:03:50;;;;;;;6.37;3.40;;;18.80;99.90;;;;;;5015714;28;20677;-76
2022/07/20 04:06:16;;;;;;;3.80;3.47;;;18.80;99.90;;;;;;4979975;28;20215;-76
2022/07/20 04:08:41;;;;;;;4.80;3.33;;;18.80;99.90;;;;;;4996605;28;20187;-76
2022/07/20 04:11:07;;;;;;;4.10;3.70;;;18.80;99.90;;;;;;4979813;28;20207;-76
2022/07/20 04:13:33;;;;;;;4.47;4.07;;;18.90;99.90;;;;;;4999307;28;20549;-76
2022/07/20 04:15:58;;;;;;;4.10;3.70;;;18.90;99.90;;;;;;4995161;28;20192;-76
2022/07/20 04:18:24;;;;;;;4.17;3.60;;;18.90;99.90;;;;;;4979731;28;20674;-75
2022/07/20 04:20:50;;;;;;;5.20;3.70;;;18.80;99.90;;;;;;4982101;28;20206;-75
2022/07/20 04:23:15;;;;;;;5.43;3.87;;;18.70;99.90;;;;;;4982426;28;20179;-75
2022/07/20 04:25:41;;;;;;;4.20;3.80;;;18.80;99.90;;;;;;4998569;28;20191;-75
2022/07/20 04:28:06;;;;;;;9.50;5.20;;;18.80;99.90;;;;;;4978391;28;20330;-78
2022/07/20 04:30:35;;;;;;;4.93;3.53;;;19.90;99.90;;;;;;4997598;28;20211;-77
2022/07/20 04:33:00;;;;;;;5.03;3.10;;;20.90;99.90;;;;;;5015787;28;20167;-77
2022/07/20 04:35:26;;;;;;;7.07;4.03;;;21.30;99.90;;;;;;4981733;28;20175;-77
2022/07/20 04:37:52;;;;;;;8.27;3.75;;;21.70;99.90;;;;;;5014905;28;20230;-76
2022/07/20 04:40:17;;;;;;;7.60;3.80;;;22.20;99.90;;;;;;4981356;28;20171;-77
2022/07/20 04:42:43;;;;;;;5.85;3.47;;;22.50;99.90;;;;;;4998272;28;20175;-77
2022/07/20 04:45:09;;;;;;;4.65;3.20;;;23.40;99.90;;;;;;4978575;28;20199;-77
2022/07/20 04:47:35;;;;;;;6.00;3.20;;;23.90;99.90;;;;;;4978912;28;20214;-76
2022/07/20 04:50:01;;;;;;;4.50;2.95;;;24.00;99.90;;;;;;4996121;28;20176;-76
2022/07/20 04:52:26;;;;;;;5.18;3.25;;;23.80;99.90;;;;;;4985502;28;20207;-76
2022/07/20 04:54:52;;;;;;;3.45;3.20;;;23.70;99.90;;;;;;4985269;28;20195;-76
2022/07/20 04:57:18;;;;;;;5.43;3.00;;;23.70;99.90;;;;;;4979500;28;20203;-73
2022/07/20 04:59:43;;;;;;;3.60;2.92;;;23.60;99.90;;;;;;4995174;28;20179;-78
2022/07/20 05:02:09;;;;;;;4.00;3.10;;;23.10;99.90;;;;;;4999784;28;20286;-75
2022/07/20 05:04:34;;;;;;;4.43;3.10;;;22.80;99.90;;;;;;4995515;28;20176;-75
2022/07/20 05:07:00;;;;;;;3.30;2.95;;;22.50;99.90;;;;;;4965680;28;20603;-75
2022/07/20 05:09:26;;;;;;;4.47;3.60;;;22.70;99.90;;;;;;4978891;28;20647;-76
2022/07/20 05:12:16;;;;;;;4.07;3.33;;;22.20;99.90;;;;;;4985835;28;20211;-75
2022/07/20 05:14:41;;;;;;;6.22;3.83;;;22.40;99.90;;;;;;5014721;28;20171;-75
2022/07/20 05:17:07;;;;;;;5.95;3.83;;;22.20;99.90;;;;;;4983011;28;20202;-75
2022/07/20 05:19:32;;;;;;;4.35;3.95;;;21.90;99.90;;;;;;4998180;28;20179;-78
2022/07/20 05:21:58;;;;;;;4.00;3.50;;;21.50;99.90;;;;;;5014737;28;20187;-75
2022/07/20 05:24:24;;;;;;;4.85;3.72;;;21.80;99.90;;;;;;5013392;28;20267;-75
2022/07/20 05:26:50;;;;;;;7.10;4.10;;;22.10;99.90;;;;;;5016556;28;20171;-75
2022/07/20 05:29:15;;;;;;;5.60;3.40;;;21.80;99.90;;;;;;4981847;28;20191;-75
2022/07/20 05:31:41;;;;;;;5.75;3.38;;;21.60;99.90;;;;;;4981677;28;20215;-75
2022/07/20 05:34:06;;;;;;;5.10;3.28;;;22.00;99.90;;;;;;4993871;28;20186;-75
2022/07/20 05:36:32;;;;;;;5.45;3.97;;;22.30;99.90;;;;;;4979134;28;20655;-75
2022/07/20 05:38:58;;;;;;;6.68;4.00;;;22.40;99.90;;;;;;4981638;28;20185;-75
2022/07/20 05:41:23;;;;;;;4.82;3.40;;;22.50;99.90;;;;;;4997289;28;20195;-75
2022/07/20 05:43:49;;;;;;;4.32;3.60;;;22.60;99.90;;;;;;4997366;28;20171;-75
2022/07/20 05:46:15;;;;;;;4.28;3.78;;;22.70;99.90;;;;;;4998003;28;20175;-74
2022/07/20 05:48:40;;;;;;;6.20;3.88;;;22.80;99.90;;;;;;4998743;28;20175;-75
2022/07/20 05:51:06;;;;;;;3.92;3.63;;;22.60;99.90;;;;;;4995423;28;20744;-75
2022/07/20 05:53:32;;;;;;;4.60;3.65;;;22.50;99.90;;;;;;4997433;28;20208;-75
2022/07/20 05:55:57;;;;;;;5.72;4.50;;;22.60;99.90;;;;;;4994456;28;20260;-74
2022/07/20 05:58:23;;;;;;;4.22;3.63;;;22.50;99.90;;;;;;4978117;28;20204;-75
2022/07/20 06:00:49;;;;;;;4.35;3.40;;;22.80;99.90;;;;;;4978320;28;20196;-74
2022/07/20 06:03:14;;;;;;;4.47;3.53;;;22.90;99.90;;;;;;5009344;28;20203;-74
2022/07/20 06:05:40;;;;;;;5.40;3.75;;;22.90;99.90;;;;;;4981915;28;20171;-73
2022/07/20 06:08:06;;;;;;;5.53;4.05;;;22.80;99.90;;;;;;4982766;28;20183;-73
2022/07/20 06:10:33;;;;;;;4.55;3.80;;;22.80;99.90;;;;;;4994165;28;20258;-73
2022/07/20 06:12:59;;;;;;;6.30;3.78;;;22.70;99.90;;;;;;5013000;28;20704;-74
2022/07/20 06:15:26;;;;;;;4.90;3.63;;;22.60;99.90;;;;;;4978109;28;20188;-73
2022/07/20 06:17:53;;;;;;;4.63;4.00;;;22.80;99.90;;;;;;5009753;28;20202;-73
2022/07/20 06:20:20;;;;;;;4.60;4.13;;;22.80;99.90;;;;;;5013368;28;20175;-73
2022/07/20 06:22:45;;;;;;;5.32;3.92;;;22.80;99.90;;;;;;4997175;28;20179;-73
2022/07/20 06:25:13;;;;;;;4.15;3.70;;;22.90;99.90;;;;;;5012945;28;20183;-73
2022/07/20 06:27:39;;;;;;;4.50;3.88;;;22.90;99.90;;;;;;5015311;28;20712;-75
2022/07/20 06:30:07;;;;;;;4.10;3.70;;;22.80;99.90;;;;;;5013867;28;20175;-73
2022/07/20 06:32:33;;;;;;;5.07;3.47;;;22.80;99.90;;;;;;4997044;28;20196;-73
2022/07/20 06:34:59;;;;;;;6.10;3.33;;;23.10;99.90;;;;;;5014464;28;20174;-73
2022/07/20 06:37:24;;;;;;;4.32;3.40;;;23.20;99.90;;;;;;5013201;28;20203;-74
2022/07/20 06:39:50;;;;;;;6.43;3.67;;;23.40;99.90;;;;;;4993126;28;20639;-73
2022/07/20 06:42:17;;;;;;;5.75;3.70;;;23.50;99.90;;;;;;5009364;28;20580;-73
2022/07/20 06:44:44;;;;;;;5.43;3.58;;;23.50;99.90;;;;;;4994946;28;20191;-73
2022/07/20 06:47:10;;;;;;;5.70;3.80;;;23.50;99.90;;;;;;4994864;28;20171;-74
2022/07/20 06:49:35;;;;;;;7.53;3.75;;;23.50;99.90;;;;;;4999941;28;20171;-74
2022/07/20 06:52:02;;;;;;;5.53;3.92;;;23.70;99.90;;;;;;5010426;28;20544;-74
2022/07/20 06:54:28;;;;;;;6.05;3.63;;;23.70;99.90;;;;;;5013221;28;20179;-74
2022/07/20 06:56:53;;;;;;;6.05;3.92;;;23.80;99.90;;;;;;4991025;28;20177;-75
2022/07/20 06:59:19;;;;;;;3.50;3.20;;;23.90;99.90;;;;;;4998649;28;20206;-75
2022/07/20 07:01:45;;;;;;;5.80;4.00;;;23.90;99.90;;;;;;4994346;28;20206;-75
2022/07/20 07:04:11;;;;;;;4.00;3.67;;;24.10;99.90;;;;;;5006929;28;20757;-75
2022/07/20 07:06:36;;;;;;;6.43;3.70;;;24.30;99.90;;;;;;4982887;28;20187;-75
2022/07/20 07:09:03;;;;;;;4.35;3.95;;;24.40;99.90;;;;;;4973005;28;20186;-76
2022/07/20 07:11:29;;;;;;;4.95;3.53;;;24.50;99.90;;;;;;5011895;28;20207;-76
2022/07/20 07:13:54;;;;;;;3.95;3.53;;;24.70;99.90;;;;;;5012793;28;20252;-76
2022/07/20 07:16:21;;;;;;;4.25;3.60;;;24.90;99.90;;;;;;4993768;28;20199;-77
2022/07/20 07:18:46;;;;;;;3.85;3.38;;;25.20;99.90;;;;;;5011624;28;20193;-76
2022/07/20 07:21:12;;;;;;;3.25;2.90;;;25.30;99.90;;;;;;4995338;28;20195;-76
2022/07/20 07:23:37;;;;;;;2.85;2.50;;;25.50;99.90;;;;;;4992275;28;20274;-76
2022/07/20 07:26:03;;;;;;;5.38;2.63;;;26.10;94.60;;;;;;5011469;28;20179;-76
2022/07/20 07:28:30;;;;;;;2.92;2.60;;;26.50;91.40;;;;;;4996029;28;20180;-76
2022/07/20 07:30:55;;;;;;;2.53;2.33;;;26.80;90.50;;;;;;5017673;28;20214;-76
2022/07/20 07:33:25;;;;;;;3.88;2.60;;;27.10;85.70;;;;;;4997941;28;20180;-76
2022/07/20 07:35:52;;;;;;;4.30;2.70;;;27.40;86.20;;;;;;4988011;28;20178;-76
2022/07/20 07:38:18;;;;;;;3.42;2.65;;;27.60;83.10;;;;;;5002219;28;20613;-76
2022/07/20 07:40:43;;;;;;;4.15;2.17;;;27.80;77.10;;;;;;5002281;28;20688;-76
2022/07/20 07:43:09;;;;;;;2.92;2.63;;;28.10;73.60;;;;;;4998444;28;20179;-76
2022/07/20 07:45:35;;;;;;;3.08;2.35;;;28.40;68.80;;;;;;4984355;28;20189;-76
2022/07/20 07:48:00;;;;;;;6.20;2.45;;;28.70;66.30;;;;;;5018388;28;20193;-76
2022/07/20 07:50:26;;;;;;;2.92;2.38;;;28.90;65.80;;;;;;5001149;28;20187;-76
2022/07/20 07:52:51;;;;;;;3.78;2.45;;;29.00;59.70;;;;;;5009568;28;20214;-76
2022/07/20 07:55:17;;;;;;;4.32;2.28;;;29.20;58.30;;;;;;4986002;28;20206;-76
2022/07/20 07:57:43;;;;;;;3.88;2.30;;;29.30;57.50;;;;;;4984807;28;20203;-76
2022/07/20 08:00:09;;;;;;;4.90;2.45;;;29.40;56.50;;;;;;5001852;28;20175;-76
2022/07/20 08:02:35;;;;;;;3.38;2.60;;;29.50;57.80;;;;;;5020352;28;20183;-76
2022/07/20 08:05:00;;;;;;;3.80;2.60;;;29.60;53.80;;;;;;5003408;28;20183;-76
2022/07/20 08:07:26;;;;;;;3.08;2.50;;;29.70;53.10;;;;;;5002412;28;20241;-76
2022/07/20 08:09:52;;;;;;;3.08;2.38;;;29.80;53.00;;;;;;5001335;28;20179;-76
2022/07/20 08:12:18;;;;;;;3.33;2.50;;;29.90;52.00;;;;;;5003390;28;20218;-76
2022/07/20 08:14:43;;;;;;;3.88;2.58;;;30.00;50.90;;;;;;5002234;28;20193;-76
2022/07/20 08:17:09;;;;;;;3.30;2.38;;;30.10;51.50;;;;;;4986362;28;20589;-77
2022/07/20 08:19:35;;;;;;;3.35;2.42;;;30.20;50.60;;;;;;4999217;28;20266;-76
2022/07/20 08:22:00;;;;;;;3.05;2.47;;;30.30;50.20;;;;;;4990575;28;20199;-76
2022/07/20 08:24:26;;;;;;;3.80;2.50;;;30.40;49.80;;;;;;4988224;28;20188;-76
2022/07/20 08:26:51;;;;;;;3.35;2.70;;;30.50;49.50;;;;;;4998209;28;20168;-75
2022/07/20 08:29:17;;;;;;;2.92;2.40;;;30.60;48.90;;;;;;5011663;28;20666;-76
2022/07/20 08:31:43;;;;;;;6.47;2.60;;;30.70;49.30;;;;;;5001118;28;20302;-76
2022/07/20 08:34:09;;;;;;;2.83;2.40;;;30.80;50.20;;;;;;5018274;28;20175;-76
2022/07/20 08:36:34;;;;;;;3.28;2.40;;;30.80;48.30;;;;;;5002757;28;20178;-74
2022/07/20 08:39:01;;;;;;;4.25;2.50;;;30.80;48.60;;;;;;5018892;28;20236;-74
2022/07/20 08:41:27;;;;;;;5.53;2.60;;;31.00;48.10;;;;;;4989951;28;20204;-76
2022/07/20 08:43:53;;;;;;;3.28;2.75;;;31.10;48.10;;;;;;5009337;28;20615;-78
2022/07/20 08:46:21;;;;;;;3.40;2.30;;;31.20;48.20;;;;;;5014268;28;20666;-77
2022/07/20 08:48:48;;;;;;;2.67;2.33;;;31.30;47.40;;;;;;4982079;28;20190;-77
2022/07/20 08:51:13;;;;;;;2.70;2.47;;;31.40;47.60;;;;;;4976292;28;20221;-77
2022/07/20 08:53:39;;;;;;;3.05;2.30;;;31.40;47.60;;;;;;4993325;28;20654;-76
2022/07/20 08:56:05;;;;;;;3.45;2.40;;;31.50;47.00;;;;;;4998483;28;20663;-76
2022/07/20 08:58:31;;;;;;;4.85;2.45;;;31.60;45.40;;;;;;4992646;28;20256;-76
2022/07/20 09:00:56;;;;;;;3.83;2.38;;;31.60;45.20;;;;;;4993966;28;20195;-76
2022/07/20 09:03:22;;;;;;;2.45;2.25;;;31.70;45.90;;;;;;4981358;28;20662;-76
2022/07/20 09:06:05;;;;;;;2.53;2.33;;;31.70;44.90;;;;;;5012842;28;20168;-76
2022/07/20 09:08:31;;;;;;;3.25;2.45;;;31.80;45.20;;;;;;5014899;28;20203;-75
2022/07/20 09:11:01;;;;;;;2.65;2.40;;;31.80;45.20;;;;;;4992666;28;20230;-75
2022/07/20 09:13:32;;;;;;;3.55;2.60;;;32.00;46.10;;;;;;4997736;28;20248;-75
2022/07/20 09:15:58;;;;;;;3.33;2.60;;;32.20;44.60;;;;;;5011166;28;20180;-77
2022/07/20 09:18:25;;;;;;;3.88;2.58;;;32.20;44.60;;;;;;5007846;28;20608;-75
2022/07/20 09:20:57;;;;;;;4.63;2.42;;;32.40;44.10;;;;;;5005023;28;20206;-77
2022/07/20 09:23:46;;;;;;;2.78;2.38;;;32.60;44.10;;;;;;4994388;28;20279;-74
2022/07/20 09:26:12;;;;;;;3.35;2.35;;;32.60;44.10;;;;;;5002679;28;20819;-75
2022/07/20 09:28:49;;;;;;;4.03;2.58;;;32.80;44.30;;;;;;5008544;28;20264;-74
2022/07/20 09:31:22;;;;;;;3.47;2.35;;;32.90;43.80;;;;;;5010338;28;21668;-75
2022/07/20 09:33:57;;;;;;;5.82;2.85;;;33.10;43.90;;;;;;5011670;28;20181;-75
2022/07/20 09:36:25;;;;;;;3.17;2.67;;;33.20;42.90;;;;;;5012033;28;20214;-74
2022/07/20 09:38:51;;;;;;;3.38;2.42;;;33.30;41.60;;;;;;4997039;28;20211;-75
2022/07/20 09:41:26;;;;;;;2.70;2.40;;;33.40;43.00;;;;;;5003281;28;20418;-74
2022/07/20 09:43:53;;;;;;;3.42;2.30;;;33.60;40.60;;;;;;5011375;28;20189;-75
2022/07/20 09:46:21;;;;;;;4.97;2.40;;;33.80;41.30;;;;;;4998710;28;20179;-76
2022/07/20 09:48:49;;;;;;;2.58;2.17;;;33.70;40.10;;;;;;4992445;28;20210;-75
2022/07/20 09:51:26;;;;;;;3.88;2.60;;;33.90;41.30;;;;;;5006154;28;20214;-75
2022/07/20 09:53:54;;;;;;;5.30;2.70;;;33.90;40.40;;;;;;4994850;28;20183;-76
2022/07/20 09:56:20;;;;;;;3.38;2.25;;;33.90;40.90;;;;;;5010106;28;20194;-75
2022/07/20 09:58:49;;;;;;;5.50;2.63;;;34.00;39.60;;;;;;4997225;28;20191;-75
2022/07/20 10:01:18;;;;;;;9.43;2.50;;;34.10;39.50;;;;;;5004625;28;20357;-76
2022/07/20 10:03:48;;;;;;;2.55;2.35;;;34.30;39.00;;;;;;4985936;28;20180;-76
2022/07/20 10:06:16;;;;;;;3.35;2.38;;;34.40;36.70;;;;;;5007181;28;20171;-76
2022/07/20 10:08:43;;;;;;;3.63;2.28;;;34.40;36.70;;;;;;5015381;28;20179;-76
2022/07/20 10:11:08;;;;;;;6.20;2.60;;;34.40;36.10;;;;;;4999173;28;20218;-76
2022/07/20 10:13:35;;;;;;;4.13;2.30;;;34.70;36.00;;;;;;4993325;28;20183;-77
2022/07/20 10:16:26;;;;;;;2.80;2.40;;;34.70;33.30;;;;;;5005319;28;20538;-75
2022/07/20 10:18:53;;;;;;;3.35;2.22;;;34.90;33.70;;;;;;4988694;28;20351;-76
2022/07/20 10:21:41;;;;;;;2.60;2.08;;;35.00;32.90;;;;;;5013735;28;20741;-76
2022/07/20 10:24:35;;;;;;;2.50;2.30;;;35.10;35.30;;;;;;5015098;28;20182;-76
2022/07/20 10:27:13;;;;;;;4.28;2.28;;;35.20;36.10;;;;;;4991055;28;20215;-77
2022/07/20 10:29:47;;;;;;;3.13;2.20;;;35.20;33.90;;;;;;5003273;28;20171;-76
2022/07/20 10:32:16;;;;;;;3.38;2.40;;;35.30;34.00;;;;;;5012674;28;20210;-77
2022/07/20 10:34:42;;;;;;;2.75;2.40;;;35.50;33.80;;;;;;5013482;28;20167;-76
2022/07/20 10:37:39;;;;;;;3.10;2.30;;;35.60;33.30;;;;;;5013234;28;20202;-77
2022/07/20 10:40:15;;;;;;;2.85;2.20;;;35.80;33.90;;;;;;5008386;28;20199;-77
2022/07/20 10:42:51;;;;;;;3.58;2.70;;;36.10;33.80;;;;;;5011509;28;20175;-76
2022/07/20 10:45:16;;;;;;;4.10;2.75;;;36.20;32.20;;;;;;4993279;28;20195;-75
2022/07/20 10:47:45;;;;;;;2.72;2.28;;;36.10;32.50;;;;;;4992446;28;20635;-76
2022/07/20 10:50:41;;;;;;;3.05;2.40;;;36.30;33.90;;;;;;4993152;28;20238;-76
2022/07/20 10:53:13;;;;;;;4.03;2.50;;;36.60;33.50;;;;;;4975814;28;20199;-76
2022/07/20 10:55:38;;;;;;;6.53;2.58;;;36.80;33.80;;;;;;5006535;28;20187;-77
2022/07/20 10:58:12;;;;;;;3.83;2.70;;;36.20;31.60;;;;;;5009654;28;20186;-77
2022/07/20 11:00:41;;;;;;;3.55;2.10;;;36.10;33.30;;;;;;4992845;28;20202;-76
2022/07/20 11:03:25;;;;;;;3.83;2.30;;;36.30;33.30;;;;;;4987749;28;20183;-75
2022/07/20 11:06:15;;;;;;;4.03;2.30;;;36.30;32.30;;;;;;5009941;28;20171;-74
2022/07/20 11:08:43;;;;;;;3.50;2.40;;;36.40;32.80;;;;;;4991558;28;20234;-74
2022/07/20 11:11:18;;;;;;;5.15;2.60;;;36.60;31.30;;;;;;4986578;28;20210;-74
2022/07/20 11:13:46;;;;;;;4.57;2.40;;;36.40;29.90;;;;;;4981558;28;20714;-75
2022/07/20 11:16:12;;;;;;;2.88;2.50;;;36.40;30.60;;;;;;5011219;28;20277;-75
2022/07/20 11:18:38;;;;;;;3.38;2.60;;;36.00;29.10;;;;;;5007916;28;20225;-75
2022/07/20 11:21:09;;;;;;;4.78;2.67;;;35.90;29.60;;;;;;4991858;28;20202;-76
2022/07/20 11:23:53;;;;;;;3.03;2.38;;;36.00;30.20;;;;;;4989301;28;20202;-75
2022/07/20 11:26:20;;;;;;;2.65;2.42;;;36.40;29.80;;;;;;4997876;28;20198;-75
2022/07/20 11:28:57;;;;;;;3.03;2.45;;;36.40;29.30;;;;;;4982528;28;20175;-75
2022/07/20 11:31:28;;;;;;;3.50;2.67;;;36.70;29.40;;;;;;4992070;28;20250;-73
2022/07/20 11:33:56;;;;;;;4.80;2.70;;;36.60;29.10;;;;;;5002917;28;20182;-74
2022/07/20 11:36:28;;;;;;;4.10;2.78;;;36.80;28.70;;;;;;5011246;28;20659;-76
2022/07/20 11:38:59;;;;;;;5.70;2.78;;;36.80;28.70;;;;;;4991203;28;20549;-75
2022/07/20 11:41:35;;;;;;;3.17;2.38;;;36.80;28.70;;;;;;5011211;28;20612;-75
2022/07/20 11:44:03;;;;;;;3.33;2.60;;;36.90;27.70;;;;;;5011230;28;20191;-75
2022/07/20 11:46:48;;;;;;;5.88;2.53;;;36.90;27.70;;;;;;5017765;28;20568;-75
2022/07/20 11:49:15;;;;;;;3.22;2.58;;;37.00;27.00;;;;;;5014689;28;20189;-75
2022/07/20 11:51:43;;;;;;;4.05;2.42;;;37.30;28.00;;;;;;5009357;28;20286;-74
2022/07/20 11:54:09;;;;;;;3.15;2.53;;;37.50;27.30;;;;;;5011556;28;20310;-76
2022/07/20 11:56:36;;;;;;;4.13;2.50;;;37.60;27.70;;;;;;4988417;28;20225;-75
2022/07/20 11:59:08;;;;;;;4.25;2.50;;;37.70;26.80;;;;;;5013512;28;20199;-76
2022/07/20 12:01:36;;;;;;;5.43;2.53;;;37.30;27.40;;;;;;4995192;28;20191;-75
2022/07/20 12:04:06;;;;;;;4.65;2.55;;;37.20;27.50;;;;;;5010745;28;20676;-74
2022/07/20 12:06:33;;;;;;;2.92;2.45;;;37.10;26.80;;;;;;5007995;28;20171;-74
2022/07/20 12:09:11;;;;;;;3.83;2.50;;;37.30;27.40;;;;;;4995263;28;20182;-74
2022/07/20 12:11:53;;;;;;;7.28;2.70;;;37.70;27.50;;;;;;5009285;28;20271;-74
2022/07/20 12:14:37;;;;;;;4.28;2.70;;;38.10;28.10;;;;;;5010828;28;20183;-75
2022/07/20 12:17:23;;;;;;;2.97;2.40;;;38.50;28.20;;;;;;5012387;28;20178;-75
2022/07/20 12:19:51;;;;;;;4.60;2.60;;;38.80;27.70;;;;;;5014465;28;20218;-74
2022/07/20 12:22:37;;;;;;;5.30;2.55;;;39.10;27.90;;;;;;4997932;28;20202;-74
2022/07/20 12:25:10;;;;;;;4.85;2.65;;;39.20;27.50;;;;;;4997606;28;20220;-73
2022/07/20 12:27:38;;;;;;;3.60;2.58;;;38.80;26.10;;;;;;4982168;28;20205;-74
2022/07/20 12:30:22;;;;;;;3.45;2.40;;;39.10;27.80;;;;;;4998466;28;20174;-73
2022/07/20 12:33:18;;;;;;;4.70;2.78;;;39.10;26.60;;;;;;5013501;28;20175;-73
2022/07/20 12:35:48;;;;;;;4.40;2.60;;;39.10;27.50;;;;;;4998079;28;20171;-73
2022/07/20 12:38:15;;;;;;;3.38;2.67;;;39.30;25.90;;;;;;4978778;28;20230;-73
2022/07/20 12:40:46;;;;;;;2.85;2.50;;;39.00;25.90;;;;;;4979036;28;20191;-73
2022/07/20 12:43:34;;;;;;;4.30;2.70;;;38.70;26.10;;;;;;4978862;28;20198;-73
2022/07/20 12:46:08;;;;;;;4.13;2.42;;;38.90;26.00;;;;;;4995104;28;20175;-72
2022/07/20 12:48:51;;;;;;;5.35;2.40;;;39.00;26.40;;;;;;4963752;28;20197;-72
2022/07/20 12:51:19;;;;;;;3.45;2.50;;;39.20;26.70;;;;;;4994596;28;20294;-73
2022/07/20 12:53:48;;;;;;;4.22;2.58;;;39.40;26.70;;;;;;4994753;28;20262;-73